sensor_id;sensor_type;location;lat;lon;timestamp;P1;durP1;ratioP1;P2;durP2;ratioP2
36475;SDS011;56615;42.682;23.364;2022-09-01T00:01:50;21.40;;;15.18;;
36475;SDS011;56615;42.682;23.364;2022-09-01T00:04:20;25.95;;;14.55;;
36475;SDS011;56615;42.682;23.364;2022-09-01T00:06:49;20.25;;;14.82;;
36475;SDS011;56615;42.682;23.364;2022-09-01T00:09:16;19.80;;;15.73;;
36475;SDS011;56615;42.682;23.364;2022-09-01T00:11:46;20.85;;;14.98;;
36475;SDS011;56615;42.682;23.364;2022-09-01T00:14:15;18.73;;;13.87;;
36475;SDS011;56615;42.682;23.364;2022-09-01T00:16:42;19.35;;;14.48;;
36475;SDS011;56615;42.682;23.364;2022-09-01T00:19:08;24.15;;;15.93;;
36475;SDS011;56615;42.682;23.364;2022-09-01T00:21:38;19.35;;;15.18;;
36475;SDS011;56615;42.682;23.364;2022-09-01T00:24:05;24.08;;;15.95;;
36475;SDS011;56615;42.682;23.364;2022-09-01T00:26:32;22.85;;;15.13;;
36475;SDS011;56615;42.682;23.364;2022-09-01T00:28:58;19.15;;;15.45;;
36475;SDS011;56615;42.682;23.364;2022-09-01T00:34:07;21.42;;;15.50;;
36475;SDS011;56615;42.682;23.364;2022-09-01T00:36:34;20.30;;;15.80;;
36475;SDS011;56615;42.682;23.364;2022-09-01T00:39:06;19.88;;;15.20;;
36475;SDS011;56615;42.682;23.364;2022-09-01T00:41:35;18.83;;;13.68;;
36475;SDS011;56615;42.682;23.364;2022-09-01T00:44:09;22.73;;;14.55;;
36475;SDS011;56615;42.682;23.364;2022-09-01T00:46:43;22.77;;;15.32;;
36475;SDS011;56615;42.682;23.364;2022-09-01T00:49:12;18.13;;;14.40;;
36475;SDS011;56615;42.682;23.364;2022-09-01T00:51:38;21.05;;;14.25;;
36475;SDS011;56615;42.682;23.364;2022-09-01T00:54:06;20.05;;;14.00;;
36475;SDS011;56615;42.682;23.364;2022-09-01T00:56:33;19.90;;;13.93;;
36475;SDS011;56615;42.682;23.364;2022-09-01T00:59:02;20.95;;;14.10;;
36475;SDS011;56615;42.682;23.364;2022-09-01T01:01:33;20.43;;;13.47;;
36475;SDS011;56615;42.682;23.364;2022-09-01T01:04:01;18.73;;;13.38;;
36475;SDS011;56615;42.682;23.364;2022-09-01T01:06:29;17.42;;;13.20;;
36475;SDS011;56615;42.682;23.364;2022-09-01T01:08:58;20.10;;;13.05;;
36475;SDS011;56615;42.682;23.364;2022-09-01T01:11:27;17.73;;;13.00;;
36475;SDS011;56615;42.682;23.364;2022-09-01T01:13:57;16.65;;;12.88;;
36475;SDS011;56615;42.682;23.364;2022-09-01T01:16:30;17.27;;;12.77;;
36475;SDS011;56615;42.682;23.364;2022-09-01T01:18:56;18.20;;;13.50;;
36475;SDS011;56615;42.682;23.364;2022-09-01T01:21:25;19.55;;;13.60;;
36475;SDS011;56615;42.682;23.364;2022-09-01T01:24:21;17.17;;;13.80;;
36475;SDS011;56615;42.682;23.364;2022-09-01T01:27:19;18.17;;;13.85;;
36475;SDS011;56615;42.682;23.364;2022-09-01T01:33:00;22.88;;;13.63;;
36475;SDS011;56615;42.682;23.364;2022-09-01T01:35:27;20.85;;;13.88;;
36475;SDS011;56615;42.682;23.364;2022-09-01T01:37:53;19.75;;;14.65;;
36475;SDS011;56615;42.682;23.364;2022-09-01T01:40:23;19.42;;;14.98;;
36475;SDS011;56615;42.682;23.364;2022-09-01T01:42:50;20.92;;;14.73;;
36475;SDS011;56615;42.682;23.364;2022-09-01T01:45:21;19.10;;;14.32;;
36475;SDS011;56615;42.682;23.364;2022-09-01T01:47:49;18.80;;;14.15;;
36475;SDS011;56615;42.682;23.364;2022-09-01T01:50:23;20.58;;;14.25;;
36475;SDS011;56615;42.682;23.364;2022-09-01T01:52:52;17.30;;;13.70;;
36475;SDS011;56615;42.682;23.364;2022-09-01T01:55:20;19.00;;;14.05;;
36475;SDS011;56615;42.682;23.364;2022-09-01T01:57:48;19.90;;;13.98;;
36475;SDS011;56615;42.682;23.364;2022-09-01T02:00:16;18.83;;;13.10;;
36475;SDS011;56615;42.682;23.364;2022-09-01T02:05:23;18.70;;;14.40;;
36475;SDS011;56615;42.682;23.364;2022-09-01T02:07:51;18.00;;;13.18;;
36475;SDS011;56615;42.682;23.364;2022-09-01T02:10:23;18.58;;;13.68;;
36475;SDS011;56615;42.682;23.364;2022-09-01T02:12:55;17.38;;;13.00;;
36475;SDS011;56615;42.682;23.364;2022-09-01T02:15:36;18.73;;;12.73;;
36475;SDS011;56615;42.682;23.364;2022-09-01T02:18:11;19.43;;;13.13;;
36475;SDS011;56615;42.682;23.364;2022-09-01T02:23:48;20.05;;;12.93;;
36475;SDS011;56615;42.682;23.364;2022-09-01T02:26:26;22.05;;;13.48;;
36475;SDS011;56615;42.682;23.364;2022-09-01T02:29:04;17.58;;;13.85;;
36475;SDS011;56615;42.682;23.364;2022-09-01T02:31:34;18.67;;;14.65;;
36475;SDS011;56615;42.682;23.364;2022-09-01T02:36:40;20.88;;;14.32;;
36475;SDS011;56615;42.682;23.364;2022-09-01T02:39:14;20.55;;;14.23;;
36475;SDS011;56615;42.682;23.364;2022-09-01T02:41:42;21.05;;;14.88;;
36475;SDS011;56615;42.682;23.364;2022-09-01T02:44:09;21.95;;;15.10;;
36475;SDS011;56615;42.682;23.364;2022-09-01T02:46:39;20.98;;;14.68;;
36475;SDS011;56615;42.682;23.364;2022-09-01T02:49:08;21.27;;;15.10;;
36475;SDS011;56615;42.682;23.364;2022-09-01T02:51:39;21.40;;;15.23;;
36475;SDS011;56615;42.682;23.364;2022-09-01T02:54:11;21.52;;;14.50;;
36475;SDS011;56615;42.682;23.364;2022-09-01T02:59:49;21.15;;;13.75;;
36475;SDS011;56615;42.682;23.364;2022-09-01T03:02:16;21.70;;;14.07;;
36475;SDS011;56615;42.682;23.364;2022-09-01T03:04:42;18.52;;;13.55;;
36475;SDS011;56615;42.682;23.364;2022-09-01T03:07:09;19.20;;;13.88;;
36475;SDS011;56615;42.682;23.364;2022-09-01T03:09:37;18.70;;;13.30;;
36475;SDS011;56615;42.682;23.364;2022-09-01T03:12:05;22.27;;;13.45;;
36475;SDS011;56615;42.682;23.364;2022-09-01T03:14:32;16.52;;;12.48;;
36475;SDS011;56615;42.682;23.364;2022-09-01T03:16:58;19.38;;;13.38;;
36475;SDS011;56615;42.682;23.364;2022-09-01T03:19:24;19.35;;;12.55;;
36475;SDS011;56615;42.682;23.364;2022-09-01T03:21:51;17.65;;;13.23;;
36475;SDS011;56615;42.682;23.364;2022-09-01T03:24:17;22.23;;;12.95;;
36475;SDS011;56615;42.682;23.364;2022-09-01T03:26:44;17.85;;;12.82;;
36475;SDS011;56615;42.682;23.364;2022-09-01T03:29:13;19.27;;;13.88;;
36475;SDS011;56615;42.682;23.364;2022-09-01T03:31:39;17.85;;;13.10;;
36475;SDS011;56615;42.682;23.364;2022-09-01T03:34:04;17.70;;;13.32;;
36475;SDS011;56615;42.682;23.364;2022-09-01T03:36:34;19.13;;;13.55;;
36475;SDS011;56615;42.682;23.364;2022-09-01T03:39:00;23.02;;;14.55;;
36475;SDS011;56615;42.682;23.364;2022-09-01T03:41:46;20.65;;;14.55;;
36475;SDS011;56615;42.682;23.364;2022-09-01T03:44:12;21.20;;;15.15;;
36475;SDS011;56615;42.682;23.364;2022-09-01T03:46:40;28.55;;;15.75;;
36475;SDS011;56615;42.682;23.364;2022-09-01T03:49:06;23.48;;;14.77;;
36475;SDS011;56615;42.682;23.364;2022-09-01T03:51:36;18.88;;;14.68;;
36475;SDS011;56615;42.682;23.364;2022-09-01T03:54:03;22.60;;;15.18;;
36475;SDS011;56615;42.682;23.364;2022-09-01T03:56:28;20.50;;;14.25;;
36475;SDS011;56615;42.682;23.364;2022-09-01T03:58:55;20.30;;;15.05;;
36475;SDS011;56615;42.682;23.364;2022-09-01T04:01:23;24.02;;;15.75;;
36475;SDS011;56615;42.682;23.364;2022-09-01T04:03:49;21.65;;;15.52;;
36475;SDS011;56615;42.682;23.364;2022-09-01T04:06:16;23.30;;;16.17;;
36475;SDS011;56615;42.682;23.364;2022-09-01T04:08:44;25.83;;;16.75;;
36475;SDS011;56615;42.682;23.364;2022-09-01T04:11:14;27.73;;;17.73;;
36475;SDS011;56615;42.682;23.364;2022-09-01T04:13:47;26.90;;;18.08;;
36475;SDS011;56615;42.682;23.364;2022-09-01T04:16:22;30.45;;;19.30;;
36475;SDS011;56615;42.682;23.364;2022-09-01T04:19:11;29.45;;;17.65;;
36475;SDS011;56615;42.682;23.364;2022-09-01T04:21:44;22.48;;;16.50;;
36475;SDS011;56615;42.682;23.364;2022-09-01T04:24:10;25.80;;;17.13;;
36475;SDS011;56615;42.682;23.364;2022-09-01T04:26:39;28.13;;;17.92;;
36475;SDS011;56615;42.682;23.364;2022-09-01T04:29:13;25.42;;;18.38;;
36475;SDS011;56615;42.682;23.364;2022-09-01T04:31:44;28.13;;;18.55;;
36475;SDS011;56615;42.682;23.364;2022-09-01T04:34:12;25.77;;;17.85;;
36475;SDS011;56615;42.682;23.364;2022-09-01T04:36:41;26.67;;;18.40;;
36475;SDS011;56615;42.682;23.364;2022-09-01T04:39:10;28.73;;;18.95;;
36475;SDS011;56615;42.682;23.364;2022-09-01T04:41:39;27.48;;;18.25;;
36475;SDS011;56615;42.682;23.364;2022-09-01T04:44:10;26.00;;;17.70;;
36475;SDS011;56615;42.682;23.364;2022-09-01T04:46:40;25.95;;;18.83;;
36475;SDS011;56615;42.682;23.364;2022-09-01T04:49:12;25.97;;;18.70;;
36475;SDS011;56615;42.682;23.364;2022-09-01T04:51:49;29.13;;;19.02;;
36475;SDS011;56615;42.682;23.364;2022-09-01T04:54:18;27.55;;;19.92;;
36475;SDS011;56615;42.682;23.364;2022-09-01T04:56:46;27.77;;;19.10;;
36475;SDS011;56615;42.682;23.364;2022-09-01T04:59:17;28.65;;;19.08;;
36475;SDS011;56615;42.682;23.364;2022-09-01T05:01:48;27.42;;;19.52;;
36475;SDS011;56615;42.682;23.364;2022-09-01T05:04:18;30.77;;;19.60;;
36475;SDS011;56615;42.682;23.364;2022-09-01T05:06:56;31.23;;;20.27;;
36475;SDS011;56615;42.682;23.364;2022-09-01T05:09:26;31.50;;;20.73;;
36475;SDS011;56615;42.682;23.364;2022-09-01T05:11:53;31.63;;;20.02;;
36475;SDS011;56615;42.682;23.364;2022-09-01T05:14:19;29.83;;;20.20;;
36475;SDS011;56615;42.682;23.364;2022-09-01T05:16:46;30.05;;;20.70;;
36475;SDS011;56615;42.682;23.364;2022-09-01T05:19:12;33.92;;;21.83;;
36475;SDS011;56615;42.682;23.364;2022-09-01T05:21:40;35.50;;;21.25;;
36475;SDS011;56615;42.682;23.364;2022-09-01T05:24:12;29.40;;;20.83;;
36475;SDS011;56615;42.682;23.364;2022-09-01T05:26:45;33.72;;;22.55;;
36475;SDS011;56615;42.682;23.364;2022-09-01T05:29:15;38.58;;;24.02;;
36475;SDS011;56615;42.682;23.364;2022-09-01T05:31:42;32.35;;;22.52;;
36475;SDS011;56615;42.682;23.364;2022-09-01T05:34:09;37.38;;;24.08;;
36475;SDS011;56615;42.682;23.364;2022-09-01T05:36:37;39.90;;;24.02;;
36475;SDS011;56615;42.682;23.364;2022-09-01T05:39:06;38.08;;;23.92;;
36475;SDS011;56615;42.682;23.364;2022-09-01T05:41:37;37.60;;;24.10;;
36475;SDS011;56615;42.682;23.364;2022-09-01T05:44:05;41.28;;;24.77;;
36475;SDS011;56615;42.682;23.364;2022-09-01T05:46:32;45.60;;;27.42;;
36475;SDS011;56615;42.682;23.364;2022-09-01T05:49:00;45.63;;;27.75;;
36475;SDS011;56615;42.682;23.364;2022-09-01T05:51:28;54.95;;;28.80;;
36475;SDS011;56615;42.682;23.364;2022-09-01T05:53:58;48.30;;;29.27;;
36475;SDS011;56615;42.682;23.364;2022-09-01T05:56:27;53.42;;;29.05;;
36475;SDS011;56615;42.682;23.364;2022-09-01T05:58:56;46.05;;;26.67;;
36475;SDS011;56615;42.682;23.364;2022-09-01T06:01:24;48.92;;;28.25;;
36475;SDS011;56615;42.682;23.364;2022-09-01T06:03:52;53.72;;;28.30;;
36475;SDS011;56615;42.682;23.364;2022-09-01T06:06:24;49.47;;;30.17;;
36475;SDS011;56615;42.682;23.364;2022-09-01T06:09:03;51.83;;;28.23;;
36475;SDS011;56615;42.682;23.364;2022-09-01T06:11:29;50.20;;;27.88;;
36475;SDS011;56615;42.682;23.364;2022-09-01T06:13:58;45.30;;;27.98;;
36475;SDS011;56615;42.682;23.364;2022-09-01T06:16:26;54.63;;;29.70;;
36475;SDS011;56615;42.682;23.364;2022-09-01T06:18:53;45.78;;;26.42;;
36475;SDS011;56615;42.682;23.364;2022-09-01T06:21:22;47.22;;;26.17;;
36475;SDS011;56615;42.682;23.364;2022-09-01T06:23:53;45.60;;;26.92;;
36475;SDS011;56615;42.682;23.364;2022-09-01T06:26:20;39.45;;;24.05;;
36475;SDS011;56615;42.682;23.364;2022-09-01T06:28:48;37.38;;;22.52;;
36475;SDS011;56615;42.682;23.364;2022-09-01T06:31:20;36.78;;;23.05;;
36475;SDS011;56615;42.682;23.364;2022-09-01T06:33:51;37.45;;;23.73;;
36475;SDS011;56615;42.682;23.364;2022-09-01T06:36:20;34.35;;;21.27;;
36475;SDS011;56615;42.682;23.364;2022-09-01T06:38:48;35.15;;;21.08;;
36475;SDS011;56615;42.682;23.364;2022-09-01T06:41:15;34.05;;;20.25;;
36475;SDS011;56615;42.682;23.364;2022-09-01T06:43:57;32.67;;;19.67;;
36475;SDS011;56615;42.682;23.364;2022-09-01T06:46:26;33.93;;;19.93;;
36475;SDS011;56615;42.682;23.364;2022-09-01T06:48:55;32.47;;;19.50;;
36475;SDS011;56615;42.682;23.364;2022-09-01T06:51:23;31.10;;;19.73;;
36475;SDS011;56615;42.682;23.364;2022-09-01T06:53:50;34.15;;;20.20;;
36475;SDS011;56615;42.682;23.364;2022-09-01T06:56:21;31.52;;;19.48;;
36475;SDS011;56615;42.682;23.364;2022-09-01T06:58:50;29.20;;;19.50;;
36475;SDS011;56615;42.682;23.364;2022-09-01T07:01:17;29.45;;;19.52;;
36475;SDS011;56615;42.682;23.364;2022-09-01T07:04:11;28.50;;;19.80;;
36475;SDS011;56615;42.682;23.364;2022-09-01T07:07:06;31.98;;;20.10;;
36475;SDS011;56615;42.682;23.364;2022-09-01T07:09:45;30.67;;;19.42;;
36475;SDS011;56615;42.682;23.364;2022-09-01T07:12:39;29.17;;;19.75;;
36475;SDS011;56615;42.682;23.364;2022-09-01T07:15:16;30.60;;;20.55;;
36475;SDS011;56615;42.682;23.364;2022-09-01T07:18:24;28.77;;;18.05;;
36475;SDS011;56615;42.682;23.364;2022-09-01T07:21:45;25.13;;;17.65;;
36475;SDS011;56615;42.682;23.364;2022-09-01T07:24:36;29.33;;;17.48;;
36475;SDS011;56615;42.682;23.364;2022-09-01T07:27:41;26.55;;;18.25;;
36475;SDS011;56615;42.682;23.364;2022-09-01T07:30:31;23.33;;;16.92;;
36475;SDS011;56615;42.682;23.364;2022-09-01T07:36:40;24.33;;;18.35;;
36475;SDS011;56615;42.682;23.364;2022-09-01T07:39:54;23.80;;;16.55;;
36475;SDS011;56615;42.682;23.364;2022-09-01T07:42:38;27.48;;;16.90;;
36475;SDS011;56615;42.682;23.364;2022-09-01T07:45:30;24.35;;;16.55;;
36475;SDS011;56615;42.682;23.364;2022-09-01T07:48:05;24.55;;;17.00;;
36475;SDS011;56615;42.682;23.364;2022-09-01T07:51:17;23.35;;;15.98;;
36475;SDS011;56615;42.682;23.364;2022-09-01T07:54:09;23.90;;;16.58;;
36475;SDS011;56615;42.682;23.364;2022-09-01T07:59:55;21.55;;;16.90;;
36475;SDS011;56615;42.682;23.364;2022-09-01T08:03:02;21.98;;;16.55;;
36475;SDS011;56615;42.682;23.364;2022-09-01T08:06:09;20.45;;;15.88;;
36475;SDS011;56615;42.682;23.364;2022-09-01T08:09:05;20.75;;;14.68;;
36475;SDS011;56615;42.682;23.364;2022-09-01T08:11:50;23.50;;;16.23;;
36475;SDS011;56615;42.682;23.364;2022-09-01T08:15:12;22.38;;;16.63;;
36475;SDS011;56615;42.682;23.364;2022-09-01T08:18:25;22.95;;;16.65;;
36475;SDS011;56615;42.682;23.364;2022-09-01T08:21:10;26.85;;;16.50;;
36475;SDS011;56615;42.682;23.364;2022-09-01T08:23:55;22.73;;;16.38;;
36475;SDS011;56615;42.682;23.364;2022-09-01T08:26:38;23.88;;;15.32;;
36475;SDS011;56615;42.682;23.364;2022-09-01T08:29:59;22.60;;;14.68;;
36475;SDS011;56615;42.682;23.364;2022-09-01T08:32:31;24.45;;;15.63;;
36475;SDS011;56615;42.682;23.364;2022-09-01T08:35:00;19.40;;;15.25;;
36475;SDS011;56615;42.682;23.364;2022-09-01T08:37:30;24.92;;;16.45;;
36475;SDS011;56615;42.682;23.364;2022-09-01T08:39:59;22.92;;;17.40;;
36475;SDS011;56615;42.682;23.364;2022-09-01T08:45:47;29.23;;;15.70;;
36475;SDS011;56615;42.682;23.364;2022-09-01T08:48:45;25.83;;;15.60;;
36475;SDS011;56615;42.682;23.364;2022-09-01T08:54:17;28.50;;;16.90;;
36475;SDS011;56615;42.682;23.364;2022-09-01T08:57:13;24.05;;;14.98;;
36475;SDS011;56615;42.682;23.364;2022-09-01T08:59:46;17.65;;;13.82;;
36475;SDS011;56615;42.682;23.364;2022-09-01T09:02:25;24.88;;;15.68;;
36475;SDS011;56615;42.682;23.364;2022-09-01T09:05:02;23.67;;;14.70;;
36475;SDS011;56615;42.682;23.364;2022-09-01T09:12:49;22.20;;;12.32;;
36475;SDS011;56615;42.682;23.364;2022-09-01T09:20:38;23.27;;;14.25;;
36475;SDS011;56615;42.682;23.364;2022-09-01T09:23:09;19.95;;;13.82;;
36475;SDS011;56615;42.682;23.364;2022-09-01T09:25:40;21.10;;;12.30;;
36475;SDS011;56615;42.682;23.364;2022-09-01T09:28:07;20.23;;;12.75;;
36475;SDS011;56615;42.682;23.364;2022-09-01T09:30:34;22.00;;;13.18;;
36475;SDS011;56615;42.682;23.364;2022-09-01T09:33:05;19.77;;;12.57;;
36475;SDS011;56615;42.682;23.364;2022-09-01T09:38:22;20.83;;;13.30;;
36475;SDS011;56615;42.682;23.364;2022-09-01T09:41:05;22.05;;;14.30;;
36475;SDS011;56615;42.682;23.364;2022-09-01T09:43:34;19.33;;;14.07;;
36475;SDS011;56615;42.682;23.364;2022-09-01T09:46:26;19.85;;;13.15;;
36475;SDS011;56615;42.682;23.364;2022-09-01T09:49:08;19.75;;;12.35;;
36475;SDS011;56615;42.682;23.364;2022-09-01T09:51:41;19.15;;;12.50;;
36475;SDS011;56615;42.682;23.364;2022-09-01T09:54:22;20.33;;;11.55;;
36475;SDS011;56615;42.682;23.364;2022-09-01T10:02:16;19.92;;;10.60;;
36475;SDS011;56615;42.682;23.364;2022-09-01T10:04:46;19.10;;;10.45;;
36475;SDS011;56615;42.682;23.364;2022-09-01T10:13:11;18.85;;;10.95;;
36475;SDS011;56615;42.682;23.364;2022-09-01T10:15:38;21.05;;;10.13;;
36475;SDS011;56615;42.682;23.364;2022-09-01T10:18:05;15.57;;;10.30;;
36475;SDS011;56615;42.682;23.364;2022-09-01T10:20:35;15.50;;;9.63;;
36475;SDS011;56615;42.682;23.364;2022-09-01T10:23:02;15.27;;;9.80;;
36475;SDS011;56615;42.682;23.364;2022-09-01T10:25:28;14.73;;;9.18;;
36475;SDS011;56615;42.682;23.364;2022-09-01T10:28:05;14.35;;;9.27;;
36475;SDS011;56615;42.682;23.364;2022-09-01T10:30:35;13.68;;;9.63;;
36475;SDS011;56615;42.682;23.364;2022-09-01T10:33:08;16.10;;;9.20;;
36475;SDS011;56615;42.682;23.364;2022-09-01T10:35:36;16.10;;;9.57;;
36475;SDS011;56615;42.682;23.364;2022-09-01T10:38:07;13.90;;;9.38;;
36475;SDS011;56615;42.682;23.364;2022-09-01T10:40:43;17.40;;;11.10;;
36475;SDS011;56615;42.682;23.364;2022-09-01T10:45:51;15.77;;;9.43;;
36475;SDS011;56615;42.682;23.364;2022-09-01T10:48:32;13.05;;;9.27;;
36475;SDS011;56615;42.682;23.364;2022-09-01T10:53:47;13.02;;;9.25;;
36475;SDS011;56615;42.682;23.364;2022-09-01T10:59:23;16.45;;;9.55;;
36475;SDS011;56615;42.682;23.364;2022-09-01T11:04:19;18.42;;;10.73;;
36475;SDS011;56615;42.682;23.364;2022-09-01T11:09:24;21.17;;;11.52;;
36475;SDS011;56615;42.682;23.364;2022-09-01T11:12:09;16.27;;;10.30;;
36475;SDS011;56615;42.682;23.364;2022-09-01T11:14:48;14.43;;;10.63;;
36475;SDS011;56615;42.682;23.364;2022-09-01T11:17:20;18.38;;;10.85;;
36475;SDS011;56615;42.682;23.364;2022-09-01T11:22:32;17.85;;;10.73;;
36475;SDS011;56615;42.682;23.364;2022-09-01T11:36:00;18.27;;;9.88;;
36475;SDS011;56615;42.682;23.364;2022-09-01T11:38:31;17.05;;;10.25;;
36475;SDS011;56615;42.682;23.364;2022-09-01T11:41:04;19.48;;;10.15;;
36475;SDS011;56615;42.682;23.364;2022-09-01T11:50:21;16.08;;;9.18;;
36475;SDS011;56615;42.682;23.364;2022-09-01T11:52:54;13.77;;;9.32;;
36475;SDS011;56615;42.682;23.364;2022-09-01T11:58:03;15.75;;;9.77;;
36475;SDS011;56615;42.682;23.364;2022-09-01T12:00:33;16.27;;;8.73;;
36475;SDS011;56615;42.682;23.364;2022-09-01T12:03:02;13.10;;;9.25;;
36475;SDS011;56615;42.682;23.364;2022-09-01T12:05:57;17.13;;;9.80;;
36475;SDS011;56615;42.682;23.364;2022-09-01T12:08:30;15.43;;;9.63;;
36475;SDS011;56615;42.682;23.364;2022-09-01T12:11:05;14.50;;;10.02;;
36475;SDS011;56615;42.682;23.364;2022-09-01T12:13:52;18.33;;;10.40;;
36475;SDS011;56615;42.682;23.364;2022-09-01T12:16:29;17.10;;;10.05;;
36475;SDS011;56615;42.682;23.364;2022-09-01T12:19:00;14.10;;;9.77;;
36475;SDS011;56615;42.682;23.364;2022-09-01T12:29:07;19.58;;;10.25;;
36475;SDS011;56615;42.682;23.364;2022-09-01T12:31:33;13.63;;;10.55;;
36475;SDS011;56615;42.682;23.364;2022-09-01T12:33:58;20.23;;;11.02;;
36475;SDS011;56615;42.682;23.364;2022-09-01T12:36:33;12.65;;;9.63;;
36475;SDS011;56615;42.682;23.364;2022-09-01T12:39:59;16.30;;;10.57;;
36475;SDS011;56615;42.682;23.364;2022-09-01T12:42:31;16.45;;;10.70;;
36475;SDS011;56615;42.682;23.364;2022-09-01T12:45:02;21.20;;;11.73;;
36475;SDS011;56615;42.682;23.364;2022-09-01T12:50:32;19.65;;;10.10;;
36475;SDS011;56615;42.682;23.364;2022-09-01T12:52:56;16.90;;;9.57;;
36475;SDS011;56615;42.682;23.364;2022-09-01T12:55:24;18.63;;;10.13;;
36475;SDS011;56615;42.682;23.364;2022-09-01T12:58:02;15.30;;;10.55;;
36475;SDS011;56615;42.682;23.364;2022-09-01T13:00:31;16.45;;;9.82;;
36475;SDS011;56615;42.682;23.364;2022-09-01T13:03:16;16.30;;;10.55;;
36475;SDS011;56615;42.682;23.364;2022-09-01T13:05:44;15.73;;;9.90;;
36475;SDS011;56615;42.682;23.364;2022-09-01T13:08:19;16.55;;;10.38;;
36475;SDS011;56615;42.682;23.364;2022-09-01T13:13:15;13.02;;;9.60;;
36475;SDS011;56615;42.682;23.364;2022-09-01T13:15:42;17.20;;;10.18;;
36475;SDS011;56615;42.682;23.364;2022-09-01T13:18:17;15.70;;;9.77;;
36475;SDS011;56615;42.682;23.364;2022-09-01T13:20:44;13.65;;;9.98;;
36475;SDS011;56615;42.682;23.364;2022-09-01T13:23:10;15.52;;;9.52;;
36475;SDS011;56615;42.682;23.364;2022-09-01T13:25:36;15.13;;;9.50;;
36475;SDS011;56615;42.682;23.364;2022-09-01T13:28:03;14.48;;;9.38;;
36475;SDS011;56615;42.682;23.364;2022-09-01T13:30:29;14.38;;;8.88;;
36475;SDS011;56615;42.682;23.364;2022-09-01T13:33:06;14.68;;;9.88;;
36475;SDS011;56615;42.682;23.364;2022-09-01T13:35:33;15.35;;;10.13;;
36475;SDS011;56615;42.682;23.364;2022-09-01T13:38:00;15.60;;;10.15;;
36475;SDS011;56615;42.682;23.364;2022-09-01T13:40:26;18.08;;;9.55;;
36475;SDS011;56615;42.682;23.364;2022-09-01T13:42:52;18.13;;;10.00;;
36475;SDS011;56615;42.682;23.364;2022-09-01T13:45:21;13.93;;;8.70;;
36475;SDS011;56615;42.682;23.364;2022-09-01T13:50:16;16.70;;;9.65;;
36475;SDS011;56615;42.682;23.364;2022-09-01T13:52:44;17.80;;;11.13;;
36475;SDS011;56615;42.682;23.364;2022-09-01T13:55:12;19.77;;;11.82;;
36475;SDS011;56615;42.682;23.364;2022-09-01T13:57:40;17.67;;;11.15;;
36475;SDS011;56615;42.682;23.364;2022-09-01T14:00:07;16.80;;;10.85;;
36475;SDS011;56615;42.682;23.364;2022-09-01T14:02:40;14.35;;;10.15;;
36475;SDS011;56615;42.682;23.364;2022-09-01T14:05:07;15.15;;;9.57;;
36475;SDS011;56615;42.682;23.364;2022-09-01T14:07:33;15.02;;;10.70;;
36475;SDS011;56615;42.682;23.364;2022-09-01T14:09:58;15.15;;;9.73;;
36475;SDS011;56615;42.682;23.364;2022-09-01T14:12:24;16.83;;;10.05;;
36475;SDS011;56615;42.682;23.364;2022-09-01T14:14:50;16.52;;;10.13;;
36475;SDS011;56615;42.682;23.364;2022-09-01T14:17:15;17.75;;;10.20;;
36475;SDS011;56615;42.682;23.364;2022-09-01T14:19:41;17.27;;;10.77;;
36475;SDS011;56615;42.682;23.364;2022-09-01T14:22:07;14.73;;;9.23;;
36475;SDS011;56615;42.682;23.364;2022-09-01T14:24:33;12.98;;;9.35;;
36475;SDS011;56615;42.682;23.364;2022-09-01T14:27:06;14.32;;;9.40;;
36475;SDS011;56615;42.682;23.364;2022-09-01T14:29:47;15.05;;;10.25;;
36475;SDS011;56615;42.682;23.364;2022-09-01T14:32:14;14.30;;;9.52;;
36475;SDS011;56615;42.682;23.364;2022-09-01T14:34:43;16.90;;;10.25;;
36475;SDS011;56615;42.682;23.364;2022-09-01T14:37:09;15.30;;;9.57;;
36475;SDS011;56615;42.682;23.364;2022-09-01T14:39:38;18.02;;;10.57;;
36475;SDS011;56615;42.682;23.364;2022-09-01T14:42:04;15.40;;;10.43;;
36475;SDS011;56615;42.682;23.364;2022-09-01T14:44:43;15.17;;;9.93;;
36475;SDS011;56615;42.682;23.364;2022-09-01T14:47:20;17.23;;;11.05;;
36475;SDS011;56615;42.682;23.364;2022-09-01T14:49:54;16.50;;;10.63;;
36475;SDS011;56615;42.682;23.364;2022-09-01T14:52:30;16.35;;;10.70;;
36475;SDS011;56615;42.682;23.364;2022-09-01T14:55:23;18.55;;;11.20;;
36475;SDS011;56615;42.682;23.364;2022-09-01T15:01:08;20.10;;;10.20;;
36475;SDS011;56615;42.682;23.364;2022-09-01T15:03:42;16.42;;;10.45;;
36475;SDS011;56615;42.682;23.364;2022-09-01T15:06:11;16.58;;;10.65;;
36475;SDS011;56615;42.682;23.364;2022-09-01T15:08:38;15.95;;;10.98;;
36475;SDS011;56615;42.682;23.364;2022-09-01T15:11:11;19.23;;;11.85;;
36475;SDS011;56615;42.682;23.364;2022-09-01T15:13:39;15.75;;;10.40;;
36475;SDS011;56615;42.682;23.364;2022-09-01T15:16:10;15.25;;;10.50;;
36475;SDS011;56615;42.682;23.364;2022-09-01T15:18:39;17.50;;;11.05;;
36475;SDS011;56615;42.682;23.364;2022-09-01T15:21:05;15.77;;;9.93;;
36475;SDS011;56615;42.682;23.364;2022-09-01T15:23:36;16.20;;;10.27;;
36475;SDS011;56615;42.682;23.364;2022-09-01T15:26:03;16.35;;;10.88;;
36475;SDS011;56615;42.682;23.364;2022-09-01T15:28:29;17.63;;;11.57;;
36475;SDS011;56615;42.682;23.364;2022-09-01T15:30:56;17.58;;;10.90;;
36475;SDS011;56615;42.682;23.364;2022-09-01T15:33:31;17.38;;;11.45;;
36475;SDS011;56615;42.682;23.364;2022-09-01T15:35:58;15.45;;;10.43;;
36475;SDS011;56615;42.682;23.364;2022-09-01T15:38:34;17.02;;;10.77;;
36475;SDS011;56615;42.682;23.364;2022-09-01T15:41:29;16.52;;;10.93;;
36475;SDS011;56615;42.682;23.364;2022-09-01T15:44:07;15.75;;;12.05;;
36475;SDS011;56615;42.682;23.364;2022-09-01T15:46:59;15.38;;;11.30;;
36475;SDS011;56615;42.682;23.364;2022-09-01T15:49:25;16.85;;;11.73;;
36475;SDS011;56615;42.682;23.364;2022-09-01T15:51:54;17.75;;;11.10;;
36475;SDS011;56615;42.682;23.364;2022-09-01T15:54:23;15.98;;;11.30;;
36475;SDS011;56615;42.682;23.364;2022-09-01T15:56:49;18.85;;;11.13;;
36475;SDS011;56615;42.682;23.364;2022-09-01T15:59:14;20.13;;;10.90;;
36475;SDS011;56615;42.682;23.364;2022-09-01T16:01:43;16.67;;;11.25;;
36475;SDS011;56615;42.682;23.364;2022-09-01T16:04:11;14.85;;;10.23;;
36475;SDS011;56615;42.682;23.364;2022-09-01T16:06:50;17.70;;;9.82;;
36475;SDS011;56615;42.682;23.364;2022-09-01T16:09:25;13.73;;;7.57;;
36475;SDS011;56615;42.682;23.364;2022-09-01T16:11:51;12.27;;;7.68;;
36475;SDS011;56615;42.682;23.364;2022-09-01T16:14:18;14.43;;;8.13;;
36475;SDS011;56615;42.682;23.364;2022-09-01T16:16:52;15.60;;;9.05;;
36475;SDS011;56615;42.682;23.364;2022-09-01T16:22:25;12.13;;;7.13;;
36475;SDS011;56615;42.682;23.364;2022-09-01T16:24:51;13.68;;;8.10;;
36475;SDS011;56615;42.682;23.364;2022-09-01T16:27:35;16.42;;;8.30;;
36475;SDS011;56615;42.682;23.364;2022-09-01T16:30:07;15.65;;;8.60;;
36475;SDS011;56615;42.682;23.364;2022-09-01T16:32:38;15.73;;;9.07;;
36475;SDS011;56615;42.682;23.364;2022-09-01T16:35:14;16.98;;;9.82;;
36475;SDS011;56615;42.682;23.364;2022-09-01T16:38:01;16.30;;;11.18;;